Time;durP1;ratioP1;P1;durP2;ratioP2;P2;SDS_P1;SDS_P2;PMS_P1;PMS_P2;Temp;Humidity;BMP_temperature;BMP_pressure;BME280_temperature;BME280_humidity;BME280_pressure;Samples;Min_cycle;Max_cycle;Signal;HPM_P1;HPM_P2
2023/04/27 00:00:16;;;;;;;0.80;0.80;;;8.60;99.90;;;;;;5055655;28;20786;-85
2023/04/27 00:02:43;;;;;;;1.00;1.00;;;8.60;99.90;;;;;;5055252;28;20489;-85
2023/04/27 00:05:11;;;;;;;0.53;0.50;;;8.60;99.90;;;;;;5055277;28;20446;-85
2023/04/27 00:07:40;;;;;;;1.07;0.73;;;8.60;99.90;;;;;;5054929;28;20542;-84
2023/04/27 00:10:08;;;;;;;0.50;0.50;;;8.50;99.90;;;;;;5055109;28;20486;-84
2023/04/27 00:12:35;;;;;;;0.73;0.73;;;8.50;99.90;;;;;;5055079;28;20471;-84
2023/04/27 00:15:02;;;;;;;1.77;0.70;;;8.50;99.90;;;;;;5055092;28;20457;-85
2023/04/27 00:17:28;;;;;;;1.47;0.73;;;8.50;99.90;;;;;;5055046;28;20453;-85
2023/04/27 00:19:55;;;;;;;0.60;0.60;;;8.50;99.90;;;;;;5055087;28;20473;-85
2023/04/27 00:22:22;;;;;;;0.70;0.60;;;8.50;99.90;;;;;;5054956;28;20468;-85
2023/04/27 00:24:50;;;;;;;0.60;0.60;;;8.50;99.90;;;;;;5054903;28;20964;-85
2023/04/27 00:27:17;;;;;;;0.50;0.50;;;8.40;99.90;;;;;;5055010;28;20450;-84
2023/04/27 00:29:43;;;;;;;4.73;1.00;;;8.50;99.90;;;;;;5055636;28;20431;-84
2023/04/27 00:32:10;;;;;;;0.80;0.70;;;8.40;99.90;;;;;;5055457;28;20462;-85
2023/04/27 00:34:37;;;;;;;0.70;0.70;;;8.30;99.90;;;;;;5054989;28;20469;-85
2023/04/27 00:37:04;;;;;;;2.43;1.13;;;8.30;99.90;;;;;;5054843;28;20446;-85
2023/04/27 00:39:34;;;;;;;3.80;1.03;;;8.30;99.90;;;;;;5054344;28;20473;-85
2023/04/27 00:42:02;;;;;;;1.47;0.90;;;8.30;99.90;;;;;;5054494;28;20463;-85
2023/04/27 00:44:28;;;;;;;2.00;1.23;;;8.30;99.90;;;;;;5054313;28;20430;-85
2023/04/27 00:46:55;;;;;;;1.23;1.00;;;8.30;99.90;;;;;;5054593;28;20439;-85
2023/04/27 00:49:24;;;;;;;0.93;0.90;;;8.20;99.90;;;;;;5054389;28;20445;-85
2023/04/27 00:51:50;;;;;;;6.73;1.30;;;8.20;99.90;;;;;;5054238;28;20566;-84
2023/04/27 00:54:20;;;;;;;1.87;1.37;;;8.20;99.90;;;;;;5054251;28;20454;-85
2023/04/27 00:56:49;;;;;;;1.73;1.27;;;8.30;99.90;;;;;;5053739;28;20450;-85
2023/04/27 00:59:18;;;;;;;3.90;1.33;;;8.30;99.90;;;;;;5054127;28;20439;-85
2023/04/27 01:01:45;;;;;;;2.60;1.03;;;8.30;99.90;;;;;;5053893;28;20478;-84
2023/04/27 01:04:12;;;;;;;6.90;1.37;;;8.30;99.90;;;;;;5053878;28;20439;-85
2023/04/27 01:06:39;;;;;;;1.40;0.70;;;8.30;99.90;;;;;;5053932;28;20828;-84
2023/04/27 01:09:07;;;;;;;1.50;0.80;;;8.20;99.90;;;;;;5054302;28;20446;-85
2023/04/27 01:11:33;;;;;;;1.03;0.80;;;8.30;99.90;;;;;;5054031;28;20482;-85
2023/04/27 01:14:03;;;;;;;1.30;1.13;;;8.20;99.90;;;;;;5054017;28;20457;-84
2023/04/27 01:16:32;;;;;;;1.30;0.67;;;8.20;99.90;;;;;;5054983;28;20446;-84
2023/04/27 01:18:58;;;;;;;2.17;0.80;;;8.20;99.90;;;;;;5053944;28;20447;-84
2023/04/27 01:21:26;;;;;;;1.50;1.07;;;8.20;99.90;;;;;;5053580;28;20978;-85
2023/04/27 01:23:54;;;;;;;1.83;0.77;;;8.30;99.90;;;;;;5053677;28;20451;-85
2023/04/27 01:26:21;;;;;;;1.83;0.97;;;8.30;99.90;;;;;;5053641;28;20521;-85
2023/04/27 01:28:48;;;;;;;1.23;1.13;;;8.30;99.90;;;;;;5053640;28;20447;-84
2023/04/27 01:31:15;;;;;;;1.33;1.00;;;8.30;99.90;;;;;;5053613;28;20498;-85
2023/04/27 01:33:42;;;;;;;0.63;0.63;;;8.20;99.90;;;;;;5053716;28;20576;-84
2023/04/27 01:36:09;;;;;;;1.47;0.70;;;8.30;99.90;;;;;;5053749;28;20465;-85
2023/04/27 01:38:36;;;;;;;1.10;0.70;;;8.20;99.90;;;;;;5053282;28;21004;-85
2023/04/27 01:41:07;;;;;;;17.83;1.10;;;8.30;99.90;;;;;;5053059;28;20969;-85
2023/04/27 01:43:34;;;;;;;0.70;0.70;;;8.30;99.90;;;;;;5053466;28;20515;-85
2023/04/27 01:46:05;;;;;;;1.77;1.40;;;8.30;99.90;;;;;;5053420;28;20459;-85
2023/04/27 01:48:32;;;;;;;1.47;0.77;;;8.20;99.90;;;;;;5053281;28;20430;-85
2023/04/27 01:50:59;;;;;;;1.30;1.03;;;8.20;99.90;;;;;;5053251;28;20497;-85
2023/04/27 01:53:26;;;;;;;4.93;1.90;;;8.20;99.90;;;;;;5052994;28;20446;-85
2023/04/27 01:55:52;;;;;;;8.83;1.67;;;8.20;99.90;;;;;;5053368;28;20454;-85
2023/04/27 01:58:20;;;;;;;1.47;0.90;;;8.10;99.90;;;;;;5053014;28;20441;-84
2023/04/27 02:00:47;;;;;;;0.50;0.50;;;8.20;99.90;;;;;;5053014;28;20482;-85
2023/04/27 02:03:14;;;;;;;1.00;0.90;;;8.20;99.90;;;;;;5053342;28;20804;-85
2023/04/27 02:05:41;;;;;;;2.17;0.97;;;8.10;99.90;;;;;;5053213;28;20811;-84
2023/04/27 02:08:07;;;;;;;1.47;0.80;;;8.10;99.90;;;;;;5054764;28;20450;-84
2023/04/27 02:10:35;;;;;;;1.00;0.57;;;8.10;99.90;;;;;;5056808;28;20446;-85
2023/04/27 02:13:02;;;;;;;0.83;0.70;;;8.10;99.90;;;;;;5056975;28;20972;-84
2023/04/27 02:15:30;;;;;;;1.47;1.27;;;8.10;99.90;;;;;;5056934;28;20500;-84
2023/04/27 02:17:58;;;;;;;1.13;0.80;;;8.10;99.90;;;;;;5057130;28;20478;-85
2023/04/27 02:20:24;;;;;;;1.00;0.80;;;8.10;99.90;;;;;;5057033;28;20874;-84
2023/04/27 02:22:52;;;;;;;0.80;0.60;;;8.10;99.90;;;;;;5057045;28;20442;-85
2023/04/27 02:25:19;;;;;;;0.73;0.60;;;8.10;99.90;;;;;;5057000;28;20454;-85
2023/04/27 02:27:46;;;;;;;0.90;0.90;;;8.00;99.90;;;;;;5056943;28;20446;-85
2023/04/27 02:30:14;;;;;;;1.33;0.80;;;8.10;99.90;;;;;;5056974;28;20872;-85
2023/04/27 02:32:42;;;;;;;0.73;0.70;;;8.10;99.90;;;;;;5056667;28;20492;-85
2023/04/27 02:35:09;;;;;;;0.60;0.60;;;8.10;99.90;;;;;;5056779;28;20454;-85
2023/04/27 02:37:36;;;;;;;0.80;0.80;;;8.10;99.90;;;;;;5056751;28;20448;-85
2023/04/27 02:40:06;;;;;;;4.47;1.10;;;8.10;99.90;;;;;;5056758;28;20446;-85
2023/04/27 02:42:32;;;;;;;2.20;1.77;;;8.10;99.90;;;;;;5056669;28;20555;-85
2023/04/27 02:44:59;;;;;;;2.63;0.90;;;8.10;99.90;;;;;;5056325;28;20934;-85
2023/04/27 02:47:26;;;;;;;1.60;1.00;;;8.10;99.90;;;;;;5056576;28;20461;-85
2023/04/27 02:49:54;;;;;;;0.97;0.70;;;8.10;99.90;;;;;;5056555;28;20446;-85
2023/04/27 02:52:21;;;;;;;1.00;0.80;;;8.10;99.90;;;;;;5056050;28;20493;-84
2023/04/27 02:54:48;;;;;;;0.83;0.77;;;8.10;99.90;;;;;;5056380;28;20508;-84
2023/04/27 02:57:15;;;;;;;1.87;1.30;;;8.10;99.90;;;;;;5056331;28;20442;-84
2023/04/27 02:59:41;;;;;;;1.10;1.00;;;8.00;99.90;;;;;;5056360;28;20466;-84
2023/04/27 03:02:08;;;;;;;0.50;0.50;;;8.10;99.90;;;;;;5055109;28;20489;-84
2023/04/27 03:04:35;;;;;;;0.63;0.50;;;8.10;99.90;;;;;;5054831;28;20446;-84
2023/04/27 03:07:03;;;;;;;0.97;0.70;;;8.00;99.90;;;;;;5055831;28;20454;-84
2023/04/27 03:09:30;;;;;;;0.60;0.60;;;8.00;99.90;;;;;;5054995;28;20451;-84
2023/04/27 03:11:57;;;;;;;0.90;0.90;;;8.10;99.90;;;;;;5054565;28;21008;-84
2023/04/27 03:14:23;;;;;;;2.30;0.80;;;8.00;99.90;;;;;;5054616;28;20461;-84
2023/04/27 03:16:50;;;;;;;4.17;1.07;;;8.10;99.90;;;;;;5054805;28;20473;-84
2023/04/27 03:19:17;;;;;;;0.87;0.80;;;8.10;99.90;;;;;;5054372;28;20474;-84
2023/04/27 03:21:44;;;;;;;1.40;1.30;;;8.10;99.90;;;;;;5054723;28;20462;-84
2023/04/27 03:24:12;;;;;;;0.70;0.70;;;8.00;99.90;;;;;;5054881;28;20493;-84
2023/04/27 03:26:39;;;;;;;0.70;0.70;;;8.00;99.90;;;;;;5054652;28;20461;-84
2023/04/27 03:29:06;;;;;;;2.13;1.23;;;8.00;99.90;;;;;;5054821;28;20888;-84
2023/04/27 03:31:32;;;;;;;1.13;1.00;;;8.00;99.90;;;;;;5054506;28;20493;-84
2023/04/27 03:33:59;;;;;;;2.93;0.90;;;8.00;99.90;;;;;;5054407;28;20969;-85
2023/04/27 03:36:27;;;;;;;1.80;1.27;;;8.00;99.90;;;;;;5054625;28;20453;-84
2023/04/27 03:38:54;;;;;;;1.20;1.10;;;8.00;99.90;;;;;;5054539;28;20454;-84
2023/04/27 03:41:22;;;;;;;2.17;1.00;;;8.00;99.90;;;;;;5054177;28;20467;-84
2023/04/27 03:43:49;;;;;;;4.63;1.03;;;8.00;99.90;;;;;;5054132;28;20977;-84
2023/04/27 03:46:16;;;;;;;1.23;0.90;;;8.10;99.90;;;;;;5054415;28;20482;-84
2023/04/27 03:48:45;;;;;;;1.70;1.10;;;8.10;99.90;;;;;;5055145;28;20525;-84
2023/04/27 03:51:12;;;;;;;1.37;0.80;;;8.00;99.90;;;;;;5054194;28;20493;-84
2023/04/27 03:53:39;;;;;;;2.93;0.87;;;8.10;99.90;;;;;;5054342;28;20473;-84
2023/04/27 03:56:06;;;;;;;0.70;0.70;;;8.10;99.90;;;;;;5053991;28;20451;-84
2023/04/27 03:58:34;;;;;;;0.70;0.70;;;8.10;99.90;;;;;;5054266;28;20821;-84
2023/04/27 04:01:01;;;;;;;0.97;0.87;;;8.10;99.90;;;;;;5017519;28;1051071;-84
2023/04/27 04:03:27;;;;;;;3.53;1.43;;;8.10;99.90;;;;;;5054920;28;20212;-84
2023/04/27 04:05:54;;;;;;;0.60;0.60;;;8.10;99.90;;;;;;5055107;28;20446;-84
2023/04/27 04:08:21;;;;;;;0.80;0.70;;;8.10;99.90;;;;;;5054712;28;20930;-84
2023/04/27 04:10:47;;;;;;;0.63;0.63;;;8.00;99.90;;;;;;5054863;28;20455;-85
2023/04/27 04:13:14;;;;;;;8.23;1.07;;;8.00;99.90;;;;;;5054797;28;20485;-85
2023/04/27 04:15:42;;;;;;;0.60;0.60;;;8.00;99.90;;;;;;5054640;28;20454;-85
2023/04/27 04:18:09;;;;;;;2.13;1.20;;;8.00;99.90;;;;;;5054572;28;20446;-84
2023/04/27 04:20:36;;;;;;;2.10;1.20;;;8.00;99.90;;;;;;5054715;28;20447;-84
2023/04/27 04:23:02;;;;;;;8.10;1.00;;;8.00;99.90;;;;;;5054784;28;20450;-84
2023/04/27 04:25:30;;;;;;;1.00;0.93;;;8.00;99.90;;;;;;5054715;28;20454;-84
2023/04/27 04:27:57;;;;;;;1.30;1.13;;;8.00;99.90;;;;;;5054685;28;20482;-84
2023/04/27 04:30:25;;;;;;;1.30;1.10;;;8.00;99.90;;;;;;5053788;28;20451;-84
2023/04/27 04:32:54;;;;;;;0.80;0.80;;;8.00;99.90;;;;;;5054518;28;20493;-84
2023/04/27 04:35:20;;;;;;;0.80;0.80;;;7.90;99.90;;;;;;5054719;28;20461;-84
2023/04/27 04:37:47;;;;;;;3.57;0.77;;;7.90;99.90;;;;;;5054485;28;20443;-84
2023/04/27 04:40:14;;;;;;;10.33;1.40;;;7.90;99.90;;;;;;5054491;28;20521;-84
2023/04/27 04:42:41;;;;;;;10.43;1.20;;;8.00;99.90;;;;;;5054050;28;21012;-84
2023/04/27 04:45:09;;;;;;;0.97;0.70;;;8.00;99.90;;;;;;5054300;28;20461;-83
2023/04/27 04:47:36;;;;;;;2.33;1.00;;;8.00;99.90;;;;;;5054225;28;20452;-83
2023/04/27 04:50:04;;;;;;;0.70;0.70;;;8.00;99.90;;;;;;5054233;28;20455;-83
2023/04/27 04:52:31;;;;;;;1.60;1.00;;;8.10;99.90;;;;;;5053739;28;20490;-83
2023/04/27 04:54:58;;;;;;;0.83;0.83;;;8.10;99.90;;;;;;5054178;28;20454;-84
2023/04/27 04:57:24;;;;;;;1.33;1.27;;;8.20;99.90;;;;;;5053869;28;20435;-83
2023/04/27 04:59:51;;;;;;;1.63;1.20;;;8.20;99.90;;;;;;5054530;28;20848;-83
2023/04/27 05:02:18;;;;;;;1.13;1.03;;;8.30;99.90;;;;;;5053580;28;20481;-83
2023/04/27 05:04:45;;;;;;;1.00;1.00;;;8.30;99.90;;;;;;5054020;28;20453;-83
2023/04/27 05:07:13;;;;;;;2.30;0.90;;;8.40;99.90;;;;;;5053878;28;20460;-83
2023/04/27 05:09:40;;;;;;;2.47;0.80;;;8.50;99.90;;;;;;5053648;28;20439;-83
2023/04/27 05:12:07;;;;;;;1.67;1.07;;;8.50;99.90;;;;;;5053426;28;20486;-83
2023/04/27 05:14:34;;;;;;;1.27;1.17;;;8.60;99.90;;;;;;5053496;28;20447;-83
2023/04/27 05:17:01;;;;;;;0.70;0.70;;;8.70;99.90;;;;;;5053909;28;20553;-83
2023/04/27 05:19:29;;;;;;;0.77;0.77;;;8.80;99.90;;;;;;5053431;28;20454;-83
2023/04/27 05:21:57;;;;;;;2.47;1.50;;;8.80;99.90;;;;;;5053636;28;20474;-83
2023/04/27 05:24:25;;;;;;;8.57;1.13;;;8.90;99.90;;;;;;5053436;28;20950;-84
2023/04/27 05:26:52;;;;;;;0.80;0.80;;;9.10;99.90;;;;;;5053638;28;20461;-83
2023/04/27 05:29:18;;;;;;;0.60;0.60;;;9.20;99.90;;;;;;5053579;28;20457;-83
2023/04/27 05:31:45;;;;;;;1.67;1.10;;;9.30;99.90;;;;;;5054419;28;20497;-83
2023/04/27 05:34:12;;;;;;;21.23;1.23;;;9.40;99.90;;;;;;5053327;28;20446;-83
2023/04/27 05:36:39;;;;;;;1.20;0.90;;;9.50;99.90;;;;;;5053460;28;20457;-83
2023/04/27 05:39:06;;;;;;;1.30;1.17;;;9.60;99.90;;;;;;5053418;28;20461;-84
2023/04/27 05:41:34;;;;;;;1.00;0.90;;;9.70;99.90;;;;;;5053229;28;20911;-84
2023/04/27 05:44:00;;;;;;;0.93;0.80;;;9.80;99.90;;;;;;5053444;28;20455;-84
2023/04/27 05:46:27;;;;;;;1.33;1.10;;;9.90;99.90;;;;;;5053118;28;20441;-83
2023/04/27 05:48:54;;;;;;;2.00;0.80;;;10.00;99.90;;;;;;5053398;28;20985;-84
2023/04/27 05:51:21;;;;;;;2.70;1.60;;;10.20;99.90;;;;;;5052940;28;20505;-84
2023/04/27 05:53:48;;;;;;;0.87;0.50;;;10.30;99.90;;;;;;5053198;28;20498;-84
2023/04/27 05:56:15;;;;;;;1.10;1.00;;;10.50;99.90;;;;;;5053234;28;20451;-84
2023/04/27 05:58:43;;;;;;;1.00;1.00;;;10.70;99.90;;;;;;5053369;28;20435;-85
2023/04/27 06:01:10;;;;;;;5.53;1.10;;;10.90;99.90;;;;;;5068836;28;20496;-84
2023/04/27 06:03:36;;;;;;;0.87;0.83;;;11.10;99.90;;;;;;5073591;28;20449;-85
2023/04/27 06:06:03;;;;;;;1.70;0.73;;;11.20;99.90;;;;;;5072975;28;20430;-85
2023/04/27 06:08:30;;;;;;;1.00;0.90;;;11.40;99.90;;;;;;5073242;28;20453;-85
2023/04/27 06:10:57;;;;;;;1.37;1.17;;;11.50;99.90;;;;;;5069938;28;20522;-85
2023/04/27 06:13:24;;;;;;;2.73;1.33;;;11.70;99.90;;;;;;5073105;28;20492;-84
2023/04/27 06:15:52;;;;;;;1.80;1.00;;;11.80;99.90;;;;;;5066240;28;20450;-84
2023/04/27 06:18:18;;;;;;;1.57;1.07;;;11.90;99.90;;;;;;5052786;28;20795;-84
2023/04/27 06:20:45;;;;;;;1.23;0.90;;;12.00;99.90;;;;;;5055520;28;20470;-84
2023/04/27 06:23:12;;;;;;;1.10;1.00;;;12.30;99.90;;;;;;5063280;28;20460;-84
2023/04/27 06:25:39;;;;;;;4.77;1.60;;;12.40;99.90;;;;;;5062775;28;20442;-84
2023/04/27 06:28:06;;;;;;;1.67;1.30;;;12.60;99.90;;;;;;5056772;28;20518;-84
2023/04/27 06:30:33;;;;;;;1.27;1.13;;;12.70;99.90;;;;;;5062180;28;20430;-83
2023/04/27 06:33:01;;;;;;;1.50;1.40;;;12.80;99.90;;;;;;5063539;28;20482;-84
2023/04/27 06:35:28;;;;;;;1.17;1.10;;;12.90;99.90;;;;;;5052722;28;20902;-84
2023/04/27 06:37:57;;;;;;;1.33;1.23;;;13.10;99.90;;;;;;5052633;28;20488;-84
2023/04/27 06:40:24;;;;;;;1.53;1.20;;;13.30;99.90;;;;;;5053188;28;20458;-84
2023/04/27 06:42:52;;;;;;;1.63;0.90;;;13.60;99.90;;;;;;5052814;28;20442;-84
2023/04/27 06:45:19;;;;;;;1.57;1.10;;;13.80;99.90;;;;;;5052579;28;20430;-84
2023/04/27 06:47:45;;;;;;;2.07;1.77;;;14.00;99.90;;;;;;5052466;28;20508;-84
2023/04/27 06:50:14;;;;;;;2.13;1.50;;;14.10;99.90;;;;;;5052772;28;20458;-83
2023/04/27 06:52:41;;;;;;;2.83;1.50;;;14.40;99.90;;;;;;5052353;28;20490;-83
2023/04/27 06:55:08;;;;;;;1.67;1.33;;;14.80;99.90;;;;;;5055461;28;20457;-83
2023/04/27 06:57:35;;;;;;;2.53;0.73;;;15.10;99.90;;;;;;5056009;28;20832;-84
2023/04/27 07:00:03;;;;;;;2.70;1.00;;;15.30;99.90;;;;;;5056370;28;20492;-84
2023/04/27 07:02:30;;;;;;;2.90;1.43;;;15.70;99.90;;;;;;5055530;28;20474;-84
2023/04/27 07:04:57;;;;;;;1.83;1.30;;;16.10;99.90;;;;;;5056643;28;20464;-83
2023/04/27 07:07:25;;;;;;;1.20;0.90;;;16.80;98.50;;;;;;5056230;28;20450;-83
2023/04/27 07:09:52;;;;;;;2.30;1.43;;;17.20;95.60;;;;;;5056162;28;20457;-84
2023/04/27 07:12:19;;;;;;;2.03;1.47;;;17.40;94.00;;;;;;5055410;28;20874;-83
2023/04/27 07:14:45;;;;;;;3.53;1.53;;;17.60;92.50;;;;;;5056096;28;20450;-83
2023/04/27 07:17:12;;;;;;;2.40;1.50;;;17.80;91.30;;;;;;5056034;28;20439;-84
2023/04/27 07:19:39;;;;;;;3.73;1.90;;;18.50;91.10;;;;;;5055972;28;20450;-83
2023/04/27 07:22:06;;;;;;;5.70;1.40;;;20.10;85.00;;;;;;5055634;28;20481;-83
2023/04/27 07:24:34;;;;;;;3.10;2.00;;;21.70;80.00;;;;;;5055915;28;20525;-82
2023/04/27 07:27:02;;;;;;;1.73;1.63;;;23.40;72.90;;;;;;5055626;28;20949;-83
2023/04/27 07:29:29;;;;;;;1.33;1.23;;;24.60;63.10;;;;;;5055995;28;20353;-83
2023/04/27 07:31:56;;;;;;;4.30;2.17;;;25.30;59.50;;;;;;5055639;28;20239;-84
2023/04/27 07:34:23;;;;;;;3.85;1.50;;;25.90;56.60;;;;;;5055651;28;20219;-83
2023/04/27 07:36:50;;;;;;;2.15;1.23;;;26.20;53.60;;;;;;5055664;28;20207;-83
2023/04/27 07:39:17;;;;;;;3.97;1.38;;;26.80;53.20;;;;;;5055556;28;20211;-83
2023/04/27 07:41:47;;;;;;;1.80;1.20;;;27.60;49.60;;;;;;5055518;28;20228;-84
2023/04/27 07:44:14;;;;;;;1.60;1.38;;;28.40;49.20;;;;;;5055506;28;20203;-84
2023/04/27 07:46:41;;;;;;;2.20;1.73;;;29.00;47.80;;;;;;5055141;28;20196;-84
2023/04/27 07:49:07;;;;;;;1.90;1.27;;;30.00;45.90;;;;;;5055131;28;20204;-84
2023/04/27 07:51:34;;;;;;;1.92;1.48;;;30.80;44.00;;;;;;5054776;28;20211;-84
2023/04/27 07:54:03;;;;;;;3.13;1.25;;;31.40;43.50;;;;;;5055259;28;20207;-84
2023/04/27 07:56:30;;;;;;;1.20;1.10;;;31.80;41.80;;;;;;5061191;28;20195;-85
2023/04/27 07:58:59;;;;;;;1.40;1.30;;;31.50;40.40;;;;;;5072410;28;20206;-84
2023/04/27 08:01:25;;;;;;;1.48;1.38;;;31.80;40.20;;;;;;5072194;28;20235;-85
2023/04/27 08:03:52;;;;;;;1.35;0.98;;;31.70;39.30;;;;;;5073003;28;20187;-84
2023/04/27 08:06:19;;;;;;;2.15;1.17;;;31.80;37.40;;;;;;5071205;28;20202;-84
2023/04/27 08:08:46;;;;;;;2.35;1.10;;;31.30;38.30;;;;;;5072404;28;20210;-85
2023/04/27 08:11:13;;;;;;;2.35;1.70;;;31.00;38.30;;;;;;5071749;28;20237;-84
2023/04/27 08:13:39;;;;;;;1.50;1.10;;;30.90;37.80;;;;;;5072172;28;20712;-83
2023/04/27 08:16:07;;;;;;;0.90;0.90;;;31.00;37.60;;;;;;5068846;28;20210;-84
2023/04/27 08:18:34;;;;;;;0.73;0.73;;;30.90;36.60;;;;;;5068884;28;20206;-85
2023/04/27 08:21:01;;;;;;;1.30;1.10;;;30.40;38.30;;;;;;5067780;28;20219;-84
2023/04/27 08:23:30;;;;;;;1.65;1.08;;;30.30;38.50;;;;;;5070547;28;20199;-84
2023/04/27 08:25:56;;;;;;;0.80;0.80;;;29.90;38.00;;;;;;5069365;28;20199;-84
2023/04/27 08:28:23;;;;;;;1.48;1.33;;;29.40;38.90;;;;;;5071358;28;20202;-84
2023/04/27 08:30:50;;;;;;;1.23;1.23;;;28.90;38.70;;;;;;5071549;28;20219;-84
2023/04/27 08:33:18;;;;;;;1.00;1.00;;;28.50;38.20;;;;;;5071312;28;20229;-84
2023/04/27 08:35:45;;;;;;;1.17;0.95;;;28.50;38.70;;;;;;5071365;28;20203;-84
2023/04/27 08:38:12;;;;;;;1.15;1.05;;;28.60;39.60;;;;;;5071983;28;20566;-84
2023/04/27 08:40:43;;;;;;;0.95;0.95;;;28.00;39.30;;;;;;5070589;28;20199;-83
2023/04/27 08:43:10;;;;;;;1.05;1.00;;;26.90;39.70;;;;;;5069625;28;20195;-84
2023/04/27 08:45:37;;;;;;;0.90;0.85;;;25.80;41.60;;;;;;5072041;28;20243;-85
2023/04/27 08:48:04;;;;;;;1.00;1.00;;;24.60;44.00;;;;;;5073977;28;20190;-84
2023/04/27 08:50:32;;;;;;;2.08;1.50;;;23.50;44.60;;;;;;5073757;28;20202;-86
2023/04/27 08:52:59;;;;;;;1.05;0.95;;;22.70;46.00;;;;;;5055808;28;20219;-83
2023/04/27 08:55:26;;;;;;;1.10;1.03;;;22.00;46.10;;;;;;5054400;28;20210;-84
2023/04/27 08:57:57;;;;;;;1.53;1.40;;;21.50;47.30;;;;;;5053916;28;20218;-84
2023/04/27 09:00:25;;;;;;;1.67;1.00;;;21.10;48.70;;;;;;5053718;28;20647;-83
2023/04/27 09:02:51;;;;;;;1.27;0.87;;;20.80;48.20;;;;;;5053960;28;20453;-84
2023/04/27 09:05:19;;;;;;;2.27;1.10;;;20.50;47.90;;;;;;5054017;28;20441;-84
2023/04/27 09:08:03;;;;;;;1.00;1.00;;;20.30;50.10;;;;;;5053979;28;20450;-84
2023/04/27 09:10:30;;;;;;;8.63;1.43;;;20.00;50.90;;;;;;5054305;28;20953;-84
2023/04/27 09:12:58;;;;;;;1.50;0.90;;;20.00;50.20;;;;;;5053541;28;20488;-83
2023/04/27 09:15:25;;;;;;;1.30;1.00;;;19.80;48.70;;;;;;5053574;28;20775;-83
2023/04/27 09:17:56;;;;;;;1.30;0.97;;;19.90;49.70;;;;;;5053226;28;20450;-83
2023/04/27 09:20:23;;;;;;;1.00;0.90;;;20.30;50.60;;;;;;5053695;28;20446;-84
2023/04/27 09:22:53;;;;;;;0.90;0.90;;;20.70;51.90;;;;;;5053733;28;20455;-84
2023/04/27 09:25:26;;;;;;;1.47;1.00;;;21.20;50.60;;;;;;5053689;28;20477;-83
2023/04/27 09:27:53;;;;;;;1.67;1.00;;;21.40;49.00;;;;;;5053505;28;20830;-83
2023/04/27 09:30:20;;;;;;;1.20;1.10;;;21.60;49.50;;;;;;5053205;28;20966;-84
2023/04/27 09:32:55;;;;;;;1.47;0.90;;;21.70;48.30;;;;;;5053239;28;20441;-84
2023/04/27 09:35:24;;;;;;;1.23;1.03;;;21.70;48.30;;;;;;5053526;28;20457;-84
2023/04/27 09:37:52;;;;;;;1.50;1.30;;;21.70;47.80;;;;;;5053255;28;20941;-84
2023/04/27 09:40:22;;;;;;;2.07;1.60;;;21.90;50.20;;;;;;5053294;28;20820;-84
2023/04/27 09:42:51;;;;;;;2.10;1.30;;;22.30;48.20;;;;;;5053388;28;20557;-84
2023/04/27 09:45:19;;;;;;;1.20;1.03;;;22.10;47.50;;;;;;5054048;28;20930;-84
2023/04/27 09:47:46;;;;;;;1.67;1.13;;;21.80;47.00;;;;;;5053423;28;20507;-83
2023/04/27 09:50:13;;;;;;;2.13;1.60;;;21.20;48.10;;;;;;5053298;28;20449;-84
2023/04/27 09:52:40;;;;;;;1.70;1.00;;;20.90;49.70;;;;;;5053545;28;20473;-84
2023/04/27 09:55:11;;;;;;;2.13;1.07;;;20.90;50.10;;;;;;5053229;28;20485;-84
2023/04/27 09:57:42;;;;;;;1.10;1.00;;;21.30;50.50;;;;;;5053071;28;20436;-84
2023/04/27 10:00:20;;;;;;;1.00;0.83;;;20.90;49.70;;;;;;5053322;28;20460;-84
2023/04/27 10:03:10;;;;;;;2.10;0.93;;;20.60;48.30;;;;;;5053155;28;20552;-84
2023/04/27 10:06:06;;;;;;;2.50;1.20;;;20.10;48.80;;;;;;5053047;28;20442;-83
2023/04/27 10:08:34;;;;;;;1.27;1.17;;;19.70;51.00;;;;;;5052883;28;20441;-83
2023/04/27 10:11:01;;;;;;;2.23;1.00;;;19.50;53.00;;;;;;5053035;28;20878;-84
2023/04/27 10:13:31;;;;;;;4.50;1.50;;;19.30;51.10;;;;;;5053091;28;20837;-84
2023/04/27 10:16:15;;;;;;;1.27;0.80;;;19.20;51.60;;;;;;5052936;28;20457;-84
2023/04/27 10:18:51;;;;;;;1.47;1.13;;;19.10;51.40;;;;;;5053216;28;20443;-84
2023/04/27 10:21:18;;;;;;;1.53;1.20;;;18.80;52.30;;;;;;5053035;28;20470;-84
2023/04/27 10:23:49;;;;;;;1.13;1.07;;;18.50;52.60;;;;;;5052929;28;21020;-84
2023/04/27 10:26:23;;;;;;;1.87;1.30;;;18.20;53.60;;;;;;5052643;28;20549;-84
2023/04/27 10:29:05;;;;;;;1.33;1.23;;;18.00;54.20;;;;;;5053854;28;20478;-84
2023/04/27 10:31:34;;;;;;;1.13;1.00;;;17.90;54.10;;;;;;5057150;28;20512;-84
2023/04/27 10:34:08;;;;;;;4.30;0.80;;;18.00;55.00;;;;;;5056813;28;20493;-84
2023/04/27 10:36:36;;;;;;;0.90;0.90;;;18.30;56.40;;;;;;5056980;28;20454;-84
2023/04/27 10:39:04;;;;;;;1.00;0.90;;;19.00;56.80;;;;;;5056810;28;20454;-84
2023/04/27 10:41:34;;;;;;;1.00;0.70;;;19.70;54.80;;;;;;5056733;28;20470;-85
2023/04/27 10:44:14;;;;;;;1.10;0.93;;;20.40;55.80;;;;;;5056674;28;20481;-85
2023/04/27 10:46:51;;;;;;;1.63;1.30;;;21.00;53.00;;;;;;5057051;28;20430;-85
2023/04/27 10:49:18;;;;;;;1.40;1.30;;;21.60;53.90;;;;;;5056984;28;20434;-85
2023/04/27 10:51:46;;;;;;;1.30;1.20;;;22.20;50.70;;;;;;5056357;28;20454;-85
2023/04/27 10:54:13;;;;;;;0.87;0.83;;;22.70;48.90;;;;;;5056562;28;20579;-85
2023/04/27 10:56:40;;;;;;;0.93;0.87;;;23.00;49.50;;;;;;5056539;28;20454;-85
2023/04/27 10:59:07;;;;;;;0.90;0.90;;;23.50;48.70;;;;;;5056540;28;20457;-85
2023/04/27 11:01:34;;;;;;;2.30;1.50;;;23.60;49.00;;;;;;5056367;28;20488;-85
2023/04/27 11:04:04;;;;;;;1.30;1.20;;;23.30;49.50;;;;;;5056422;28;20826;-84
2023/04/27 11:06:32;;;;;;;1.73;1.37;;;23.00;50.80;;;;;;5056341;28;20208;-84
2023/04/27 11:08:58;;;;;;;1.50;1.40;;;22.50;51.20;;;;;;5056274;28;20204;-84
2023/04/27 11:11:25;;;;;;;0.90;0.90;;;21.90;51.30;;;;;;5056074;28;20469;-85
2023/04/27 11:13:53;;;;;;;2.90;1.20;;;21.30;51.80;;;;;;5056121;28;20560;-85
2023/04/27 11:16:19;;;;;;;2.20;0.93;;;21.00;51.00;;;;;;5056094;28;20446;-84
2023/04/27 11:18:46;;;;;;;2.10;1.10;;;20.70;52.70;;;;;;5056060;28;20487;-85
2023/04/27 11:21:16;;;;;;;1.70;0.90;;;20.30;53.50;;;;;;5055750;28;20820;-85
2023/04/27 11:23:43;;;;;;;3.33;1.23;;;20.10;54.10;;;;;;5055976;28;20495;-85
2023/04/27 11:26:10;;;;;;;2.17;1.30;;;20.00;53.50;;;;;;5055935;28;20450;-84
2023/04/27 11:28:37;;;;;;;1.60;1.10;;;19.80;54.60;;;;;;5055546;28;20938;-85
2023/04/27 11:31:04;;;;;;;0.87;0.87;;;19.80;54.60;;;;;;5055842;28;21040;-85
2023/04/27 11:33:31;;;;;;;2.63;1.33;;;19.60;54.00;;;;;;5055669;28;20451;-85
2023/04/27 11:35:58;;;;;;;1.63;1.10;;;19.40;54.30;;;;;;5055516;28;20450;-84
2023/04/27 11:38:33;;;;;;;1.90;1.00;;;19.20;55.50;;;;;;5055672;28;20458;-85
2023/04/27 11:41:01;;;;;;;2.63;1.20;;;19.10;57.00;;;;;;5055400;28;20469;-85
2023/04/27 11:43:28;;;;;;;1.70;1.10;;;19.10;55.40;;;;;;5055711;28;20450;-85
2023/04/27 11:45:57;;;;;;;1.30;1.03;;;19.00;55.80;;;;;;5056258;28;20461;-85
2023/04/27 11:48:24;;;;;;;1.30;1.20;;;18.90;57.10;;;;;;5055660;28;20456;-85
2023/04/27 11:50:52;;;;;;;2.60;1.30;;;18.90;56.70;;;;;;5055528;28;20475;-84
2023/04/27 11:53:31;;;;;;;0.97;0.90;;;18.90;55.80;;;;;;5055720;28;20453;-84
2023/04/27 11:56:01;;;;;;;1.40;1.13;;;19.10;56.40;;;;;;5055986;28;20539;-85
2023/04/27 11:58:28;;;;;;;0.97;0.90;;;19.30;56.50;;;;;;5055906;28;20801;-84
2023/04/27 12:00:56;;;;;;;1.03;0.97;;;19.60;56.50;;;;;;5055320;28;20522;-84
2023/04/27 12:03:24;;;;;;;1.50;1.40;;;19.70;56.20;;;;;;5056214;28;20443;-86
2023/04/27 12:05:52;;;;;;;1.27;1.17;;;19.70;55.90;;;;;;5055696;28;20465;-85
2023/04/27 12:08:19;;;;;;;1.63;1.53;;;19.70;56.00;;;;;;5055718;28;21024;-85
2023/04/27 12:10:47;;;;;;;1.47;1.03;;;19.80;57.60;;;;;;5056004;28;20463;-84
2023/04/27 12:13:14;;;;;;;3.70;1.53;;;19.90;55.30;;;;;;5055817;28;20478;-85
2023/04/27 12:15:42;;;;;;;5.10;1.40;;;19.90;55.90;;;;;;5054905;28;20521;-85
2023/04/27 12:18:09;;;;;;;5.70;1.00;;;19.80;55.00;;;;;;5055083;28;20515;-85
2023/04/27 12:20:37;;;;;;;1.37;0.90;;;19.80;55.00;;;;;;5054920;28;21052;-85
2023/04/27 12:23:03;;;;;;;3.00;1.10;;;19.40;56.30;;;;;;5054654;28;20446;-85
2023/04/27 12:25:30;;;;;;;1.20;1.00;;;19.60;56.30;;;;;;5055091;28;20449;-84
2023/04/27 12:27:58;;;;;;;1.80;1.23;;;19.60;55.90;;;;;;5055115;28;20447;-86
2023/04/27 12:30:25;;;;;;;1.00;0.90;;;19.80;55.40;;;;;;5055007;28;20787;-85
2023/04/27 12:32:52;;;;;;;1.20;0.80;;;19.90;56.80;;;;;;5055279;28;20453;-85
2023/04/27 12:35:18;;;;;;;0.93;0.87;;;19.90;56.00;;;;;;5055362;28;20485;-87
2023/04/27 12:37:47;;;;;;;1.10;1.00;;;20.00;55.00;;;;;;5054771;28;20458;-86
2023/04/27 12:40:14;;;;;;;1.37;1.10;;;19.80;55.30;;;;;;5054710;28;20450;-87
2023/04/27 12:42:40;;;;;;;1.23;0.93;;;19.70;56.10;;;;;;5054441;28;20502;-86
2023/04/27 12:45:09;;;;;;;0.80;0.80;;;19.50;55.30;;;;;;5054651;28;20549;-85
2023/04/27 12:47:36;;;;;;;1.00;0.80;;;19.40;55.50;;;;;;5054621;28;20449;-86
2023/04/27 12:50:04;;;;;;;2.03;1.33;;;19.10;57.10;;;;;;5054478;28;20450;-84
2023/04/27 12:52:31;;;;;;;0.70;0.70;;;19.00;56.10;;;;;;5053735;28;20581;-85